Main page
METAR-TAF:

METAR-TAF

Airports :

Castres–Mazamet Airport

Castres, France

latitude: 43-33-25N, longitude: 2-17-21E, elevation: 239 m

Current weather observation

The report was made 22 minutes ago, at 12:00 UTC
Wind 6 kt from the North, varying between West/Northwest and East/Northeast
Temperature 27°C
Humidity 45%
Pressure 1020 hPa
Visibility 10 km or more
no clouds below 1500 m and no cumulonimbus

METAR: LFCK 171200Z AUTO 36006KT 290V060 CAVOK 27/14 Q1020 NOSIG

Time: 14:22 (12:22 UTC)

Forecast

The report was made 1 hour and 22 minutes ago, at 11:00 UTC
Forecast valid from 17 at 12 UTC to 17 at 21 UTC
Wind 3 kt from variable directions
Visibility 10 km or more
no clouds below 1500 m and no cumulonimbus

TAF: LFCK 171100Z 1712/1721 VRB03KT CAVOK

Weather observations and forecasts of more than 4000 airports (METAR and TAF reports).

The available stations are represented by yellow and red dots on the map.

Hover mouse over dot to see the name of the station.

Then click to see weather observations and forecasts.

To change the map : click on the green buttons with a black cross to zoom in, on the green button with a dash to zoom out, or on the green arrows for adjacent maps.


METAR-TAF: